Time;durP1;ratioP1;P1;durP2;ratioP2;P2;SDS_P1;SDS_P2;PMS_P1;PMS_P2;Temp;Humidity;BMP_temperature;BMP_pressure;BME280_temperature;BME280_humidity;BME280_pressure;Samples;Min_cycle;Max_cycle;Signal;HPM_P1;HPM_P2
2022/02/04 00:04:18;;;;;;;;;12.25;9.00;;;;;14.34;39.85;98313.88;4986372;27;109175;-80
2022/02/04 00:22:56;;;;;;;;;7.25;6.25;;;;;14.42;40.39;98312.75;4991313;27;102593;-79
2022/02/04 00:25:36;;;;;;;;;9.75;8.75;;;;;14.42;39.72;98310.03;4984500;27;108084;-79
2022/02/04 00:28:12;;;;;;;;;8.00;7.50;;;;;14.41;39.51;98303.75;4980796;28;102852;-79
2022/02/04 00:30:45;;;;;;;;;8.50;7.25;;;;;14.40;39.80;98304.84;4982666;27;102152;-79
2022/02/04 00:33:13;;;;;;;;;10.00;9.00;;;;;14.41;39.61;98300.25;4984918;28;102228;-79
2022/02/04 00:38:20;;;;;;;;;9.75;7.00;;;;;14.40;39.70;98288.53;4992617;28;102040;-79
2022/02/04 00:40:52;;;;;;;;;9.00;7.50;;;;;14.40;39.63;98287.69;5008112;27;101712;-79
2022/02/04 00:43:22;;;;;;;;;7.00;5.75;;;;;14.38;39.92;98284.34;4989681;27;102326;-79
2022/02/04 00:46:14;;;;;;;;;5.75;5.75;;;;;14.38;40.05;98278.91;4985200;27;103438;-79
2022/02/04 00:49:10;;;;;;;;;6.50;5.25;;;;;14.37;39.61;98266.38;4988721;27;103623;-80
2022/02/04 00:51:54;;;;;;;;;9.75;7.50;;;;;14.36;40.44;98271.00;5008582;27;102226;-79
2022/02/04 00:54:29;;;;;;;;;7.50;6.00;;;;;14.36;39.89;98264.75;4993196;27;102085;-79
2022/02/04 01:26:44;;;;;;;;;6.50;4.75;;;;;14.17;39.95;98213.13;4983816;28;102099;-79
2022/02/04 01:29:12;;;;;;;;;6.00;6.00;;;;;14.20;40.52;98203.66;4993278;27;103397;-80
2022/02/04 01:31:39;;;;;;;;;6.25;5.50;;;;;14.21;39.87;98203.44;4990510;27;101494;-79
2022/02/04 01:34:06;;;;;;;;;6.00;5.75;;;;;14.22;40.44;98196.94;4981167;27;102118;-79
2022/02/04 01:36:34;;;;;;;;;8.00;6.50;;;;;14.22;39.97;98194.22;4978541;27;101748;-79
2022/02/04 01:39:01;;;;;;;;;7.00;5.75;;;;;14.22;40.07;98194.22;4981818;28;103513;-79
2022/02/04 01:41:28;;;;;;;;;8.75;6.25;;;;;14.23;40.43;98182.25;4987743;27;102400;-79
2022/02/04 01:43:55;;;;;;;;;7.25;5.50;;;;;14.25;40.41;98187.47;4986640;27;102014;-79
2022/02/04 01:46:22;;;;;;;;;9.25;5.75;;;;;14.26;39.94;98176.38;4998565;27;102212;-79
2022/02/04 01:48:50;;;;;;;;;5.75;5.75;;;;;14.28;40.47;98171.50;4990603;27;103502;-79
2022/02/04 01:51:17;;;;;;;;;6.75;5.25;;;;;14.29;40.33;98173.16;4984519;27;101905;-80
2022/02/04 01:53:44;;;;;;;;;8.25;6.00;;;;;14.29;39.65;98167.72;4987723;27;101662;-79
2022/02/04 01:56:12;;;;;;;;;8.00;8.00;;;;;14.33;40.29;98165.34;4991560;27;101743;-80
2022/02/04 01:58:40;;;;;;;;;9.25;6.00;;;;;14.33;40.31;98162.63;5016210;27;108066;-80
2022/02/04 02:01:07;;;;;;;;;6.50;5.25;;;;;14.34;39.60;98153.41;4981256;27;101652;-80
2022/02/04 02:03:34;;;;;;;;;9.50;6.00;;;;;14.35;40.66;98163.25;4970598;27;101748;-79
2022/02/04 02:06:07;;;;;;;;;6.50;5.75;;;;;14.37;39.68;98165.75;4971456;27;101967;-79
2022/02/04 02:08:34;;;;;;;;;5.50;5.00;;;;;14.38;39.92;98165.50;4971383;27;103430;-79
2022/02/04 02:11:02;;;;;;;;;5.50;4.25;;;;;14.38;40.11;98170.13;4971637;28;101994;-79
2022/02/04 02:13:52;;;;;;;;;9.25;7.50;;;;;14.38;39.78;98164.69;4977131;27;110002;-79
2022/02/04 02:33:13;;;;;;;;;8.75;7.75;;;;;14.38;39.76;98153.81;4996813;27;101696;-79
2022/02/04 02:33:31;;;;;;;;;8.25;5.50;;;;;14.36;39.76;98153.22;4991030;27;102505;-79
2022/02/04 02:57:09;;;;;;;;;6.00;5.00;;;;;14.32;40.55;98119.38;4984363;27;102288;-79
2022/02/04 02:59:50;;;;;;;;;6.00;4.50;;;;;14.30;39.79;98116.88;4986283;27;104379;-79
2022/02/04 03:02:17;;;;;;;;;4.00;4.00;;;;;14.29;40.20;98124.22;4988086;28;108253;-79
2022/02/04 03:04:44;;;;;;;;;5.25;4.75;;;;;14.28;40.38;98122.53;4997406;27;101679;-79
2022/02/04 03:07:11;;;;;;;;;9.75;5.75;;;;;14.26;39.75;98113.81;4997988;27;101771;-79
2022/02/04 03:09:38;;;;;;;;;5.50;5.00;;;;;14.26;40.33;98118.41;4998782;28;101817;-79
2022/02/04 03:12:06;;;;;;;;;4.50;3.00;;;;;14.26;39.73;98102.94;5001302;27;104364;-79
2022/02/04 03:14:33;;;;;;;;;7.50;5.00;;;;;14.24;40.48;98115.94;4989551;27;101937;-79
2022/02/04 03:17:01;;;;;;;;;7.50;5.00;;;;;14.24;40.58;98115.09;4983937;27;101627;-79
2022/02/04 03:19:29;;;;;;;;;4.00;3.00;;;;;14.22;40.49;98103.66;4997502;27;102246;-79
2022/02/04 03:22:03;;;;;;;;;9.25;7.50;;;;;14.18;40.01;98105.97;4981465;27;103322;-79
2022/02/04 03:24:30;;;;;;;;;8.00;4.25;;;;;14.17;39.62;98115.22;4999407;27;102029;-80
2022/02/04 03:27:01;;;;;;;;;6.50;4.75;;;;;14.17;40.56;98114.41;4993333;27;101889;-79
2022/02/04 03:29:35;;;;;;;;;6.25;5.25;;;;;14.17;39.82;98109.78;4997088;27;102919;-79
2022/02/04 03:32:07;;;;;;;;;5.00;5.00;;;;;14.16;40.54;98093.72;4990068;28;103430;-79
2022/02/04 03:34:34;;;;;;;;;5.75;5.00;;;;;14.18;40.43;98095.09;5000201;27;101837;-79
2022/02/04 03:37:01;;;;;;;;;9.00;5.50;;;;;14.16;40.10;98097.25;4984035;27;104342;-79
2022/02/04 03:39:32;;;;;;;;;10.50;6.50;;;;;14.18;39.84;98094.31;4990134;27;101965;-79
2022/02/04 03:41:59;;;;;;;;;7.50;5.00;;;;;14.17;40.10;98098.09;5003986;27;103310;-79
2022/02/04 03:44:26;;;;;;;;;6.00;6.00;;;;;14.18;40.47;98099.75;4975545;27;104557;-79
2022/02/04 03:46:53;;;;;;;;;7.50;5.50;;;;;14.16;39.81;98094.53;4985966;27;101796;-79
2022/02/04 03:49:20;;;;;;;;;4.75;3.50;;;;;14.17;40.08;98104.34;4990032;28;102118;-79
2022/02/04 03:51:47;;;;;;;;;5.00;5.00;;;;;14.17;40.04;98104.34;4985235;28;104374;-80
2022/02/04 03:54:14;;;;;;;;;5.50;5.50;;;;;14.18;39.71;98100.53;4996854;27;102928;-80
2022/02/04 03:56:41;;;;;;;;;4.50;4.50;;;;;14.19;40.09;98110.38;4987111;27;101884;-79
2022/02/04 03:59:08;;;;;;;;;8.00;6.75;;;;;14.19;39.71;98110.38;4975252;28;103779;-79
2022/02/04 04:01:35;;;;;;;;;7.00;5.00;;;;;14.20;40.53;98095.72;4982753;27;103539;-79
2022/02/04 04:04:03;;;;;;;;;7.00;4.00;;;;;14.19;40.74;98099.50;4985728;27;101780;-79
2022/02/04 04:06:30;;;;;;;;;11.00;5.75;;;;;14.21;40.43;98102.81;4986475;27;101839;-79
2022/02/04 04:08:57;;;;;;;;;5.00;5.00;;;;;14.24;40.05;98098.78;4983058;28;101710;-79
2022/02/04 04:11:24;;;;;;;;;6.00;5.00;;;;;14.25;39.84;98104.00;4987611;27;103350;-79
2022/02/04 04:13:51;;;;;;;;;4.00;4.00;;;;;14.26;40.54;98099.38;4995665;27;101957;-79
2022/02/04 04:16:20;;;;;;;;;5.50;4.50;;;;;14.25;40.15;98098.56;4994705;27;101856;-80
2022/02/04 04:18:47;;;;;;;;;5.25;3.25;;;;;14.27;39.65;98096.41;5000382;27;101754;-80
2022/02/04 04:21:14;;;;;;;;;4.25;4.25;;;;;14.27;40.43;98093.69;4986450;28;107916;-79
2022/02/04 04:23:41;;;;;;;;;7.00;5.00;;;;;14.27;40.28;98096.41;4985445;28;102300;-79
2022/02/04 04:26:07;;;;;;;;;6.00;5.00;;;;;14.28;40.68;98092.63;4988949;27;102712;-79
2022/02/04 04:28:34;;;;;;;;;7.50;5.00;;;;;14.27;40.44;98088.25;4996491;28;101819;-79
2022/02/04 04:31:01;;;;;;;;;5.00;4.75;;;;;14.27;40.55;98076.56;4990204;27;103383;-80
2022/02/04 04:33:29;;;;;;;;;5.50;5.00;;;;;14.27;40.38;98077.38;4994926;27;102351;-79
2022/02/04 04:35:56;;;;;;;;;3.75;3.00;;;;;14.26;40.48;98073.03;4994833;27;102049;-79
2022/02/04 04:38:32;;;;;;;;;9.25;6.00;;;;;14.28;40.68;98083.66;4998615;27;101833;-79
2022/02/04 05:30:15;;;;;;;;;9.75;5.00;;;;;14.10;40.46;98059.28;4989906;28;101815;-79
2022/02/04 05:32:42;;;;;;;;;4.00;3.50;;;;;14.09;40.27;98061.22;4996090;27;102344;-80
2022/02/04 05:35:11;;;;;;;;;8.75;7.00;;;;;14.11;40.25;98071.84;4988159;28;103601;-79
2022/02/04 05:37:43;;;;;;;;;7.50;6.00;;;;;14.10;39.70;98076.44;4998185;28;101653;-79
2022/02/04 05:40:13;;;;;;;;;9.50;7.50;;;;;14.10;40.06;98068.28;4976746;28;101888;-79
2022/02/04 05:42:48;;;;;;;;;8.00;5.00;;;;;14.11;40.23;98060.97;4981487;28;104775;-79
2022/02/04 05:45:19;;;;;;;;;7.50;7.00;;;;;14.09;40.66;98063.94;4995830;27;103409;-79
2022/02/04 05:47:49;;;;;;;;;5.25;5.00;;;;;14.10;40.66;98070.16;4990741;28;101962;-79
2022/02/04 05:50:27;;;;;;;;;5.00;5.00;;;;;14.09;39.95;98068.53;4996750;27;103416;-79
2022/02/04 05:58:24;;;;;;;;;5.75;4.50;;;;;14.11;40.62;98071.84;4977236;28;101691;-79
2022/02/04 06:22:37;;;;;;;;;8.00;6.00;;;;;14.18;39.90;98067.91;4993430;27;101776;-79
2022/02/04 06:25:07;;;;;;;;;8.75;5.50;;;;;14.18;40.50;98067.91;4997235;27;102137;-79
2022/02/04 06:27:34;;;;;;;;;7.50;5.50;;;;;14.19;40.59;98069.59;4990897;27;103148;-79
2022/02/04 06:30:03;;;;;;;;;6.00;6.00;;;;;14.18;40.44;98061.69;4975452;28;102147;-79
2022/02/04 06:32:30;;;;;;;;;5.50;5.00;;;;;14.20;40.51;98064.97;4985584;28;102011;-79
2022/02/04 06:34:58;;;;;;;;;8.50;6.75;;;;;14.21;40.50;98067.47;4972445;28;102254;-79
2022/02/04 06:37:25;;;;;;;;;8.25;6.50;;;;;14.22;40.67;98071.84;5013046;27;103154;-79
2022/02/04 06:39:52;;;;;;;;;8.75;5.75;;;;;14.23;40.20;98072.66;5016668;27;104712;-79
2022/02/04 06:42:27;;;;;;;;;7.00;5.25;;;;;14.25;40.18;98062.38;4983416;27;101975;-79
2022/02/04 06:44:54;;;;;;;;;5.50;4.75;;;;;14.27;40.50;98071.13;4981873;28;102071;-79
2022/02/04 06:47:21;;;;;;;;;7.00;6.00;;;;;14.28;40.40;98075.50;5008154;27;103130;-79
2022/02/04 06:49:48;;;;;;;;;8.00;5.75;;;;;14.27;40.63;98066.50;4992006;28;102054;-80
2022/02/04 06:52:15;;;;;;;;;6.00;6.00;;;;;14.28;39.95;98056.44;4988945;28;101976;-79
2022/02/04 06:54:42;;;;;;;;;8.00;7.00;;;;;14.28;40.05;98061.88;4998070;27;101837;-79
2022/02/04 06:57:09;;;;;;;;;7.75;5.00;;;;;14.27;40.05;98061.06;4993825;27;103382;-80
2022/02/04 06:59:38;;;;;;;;;6.50;5.00;;;;;14.25;40.31;98063.22;4985131;28;102076;-79
2022/02/04 07:02:07;;;;;;;;;7.00;7.00;;;;;14.26;40.39;98072.19;5001251;28;101950;-80
2022/02/04 07:04:35;;;;;;;;;8.00;5.00;;;;;14.26;39.98;98072.19;4996594;27;101791;-79
2022/02/04 07:07:02;;;;;;;;;8.25;5.00;;;;;14.25;39.87;98076.81;4999764;27;103334;-79
2022/02/04 07:19:56;;;;;;;;;8.50;8.00;;;;;14.20;39.86;98082.13;5002414;28;101853;-79
2022/02/04 07:22:29;;;;;;;;;8.00;6.00;;;;;14.22;39.97;98076.44;5002539;27;101792;-79
2022/02/04 07:24:59;;;;;;;;;10.00;8.00;;;;;14.17;40.59;98076.34;4979025;27;103562;-79
2022/02/04 07:27:26;;;;;;;;;5.50;5.50;;;;;14.16;40.70;98075.50;4999083;27;108210;-79
2022/02/04 07:29:55;;;;;;;;;11.00;9.50;;;;;14.16;39.68;98080.09;4999565;28;102277;-80
2022/02/04 07:32:43;;;;;;;;;8.50;8.25;;;;;14.16;39.99;98080.09;4998476;27;101769;-79
2022/02/04 07:41:01;;;;;;;;;9.75;8.75;;;;;14.17;39.77;98089.94;4983048;28;102089;-79
2022/02/04 07:43:28;;;;;;;;;7.50;7.00;;;;;14.17;39.95;98092.66;4983861;27;101807;-79
2022/02/04 07:45:55;;;;;;;;;10.25;9.25;;;;;14.17;39.99;98093.47;5001352;27;102155;-79
2022/02/04 07:48:25;;;;;;;;;9.50;7.75;;;;;14.16;40.15;98089.09;4983949;27;108121;-80
2022/02/04 07:50:52;;;;;;;;;10.50;10.00;;;;;14.18;40.03;98088.88;4981717;28;101901;-79
2022/02/04 07:53:20;;;;;;;;;12.00;9.75;;;;;14.19;40.73;98091.34;4994061;28;102165;-79
2022/02/04 07:55:49;;;;;;;;;10.25;8.00;;;;;14.20;40.19;98090.28;4991768;28;104781;-79
2022/02/04 07:58:16;;;;;;;;;12.25;9.00;;;;;14.22;40.05;98090.06;4990409;27;103397;-79
2022/02/04 08:00:44;;;;;;;;;11.50;8.00;;;;;14.23;39.76;98097.94;4996776;28;101920;-79
2022/02/04 08:03:29;;;;;;;;;8.50;7.75;;;;;14.24;40.36;98101.50;5003302;27;101759;-79
2022/02/04 08:06:01;;;;;;;;;11.75;7.75;;;;;14.26;40.35;98094.78;5003281;27;102104;-79
2022/02/04 08:08:59;;;;;;;;;11.00;9.00;;;;;14.28;40.57;98095.34;4999789;27;108120;-79
2022/02/04 08:11:44;;;;;;;;;8.00;8.00;;;;;14.30;40.12;98093.25;4988474;28;101652;-79
2022/02/04 08:22:28;;;;;;;;;9.50;9.00;;;;;14.36;39.94;98104.28;4990509;28;102631;-79
2022/02/04 08:27:57;;;;;;;;;9.00;9.00;;;;;14.38;40.34;98096.69;4991021;28;102366;-79
2022/02/04 08:35:44;;;;;;;;;8.50;7.00;;;;;14.40;40.46;98095.41;5002666;27;101517;-79
2022/02/04 08:38:39;;;;;;;;;10.75;10.00;;;;;14.41;39.70;98105.19;4996111;27;102091;-79
2022/02/04 08:54:55;;;;;;;;;9.75;9.00;;;;;14.43;39.75;98107.69;5000084;27;104571;-79
2022/02/04 08:57:36;;;;;;;;;6.50;6.25;;;;;14.42;40.08;98103.31;4993533;28;101603;-79
2022/02/04 09:02:37;;;;;;;;;10.25;9.00;;;;;14.41;40.02;98098.94;5002508;27;103281;-79
2022/02/04 09:05:09;;;;;;;;;9.00;8.75;;;;;14.41;40.32;98098.94;4999176;27;102255;-79
2022/02/04 09:10:14;;;;;;;;;7.50;5.75;;;;;14.37;39.96;98109.44;4998056;28;101914;-79
2022/02/04 09:23:09;;;;;;;;;11.00;9.50;;;;;14.32;39.83;98101.97;4988101;28;103151;-79
2022/02/04 09:25:36;;;;;;;;;6.00;5.00;;;;;14.32;40.39;98110.13;4992402;28;102656;-79
2022/02/04 09:28:03;;;;;;;;;10.00;8.25;;;;;14.32;39.80;98094.91;4989959;27;101957;-79
2022/02/04 09:30:31;;;;;;;;;10.25;6.50;;;;;14.31;39.72;98102.22;4999371;28;102204;-79
2022/02/04 09:32:58;;;;;;;;;14.25;9.00;;;;;14.30;40.23;98103.28;5000944;28;103478;-79
2022/02/04 09:35:25;;;;;;;;;11.50;10.75;;;;;14.30;40.44;98103.28;4996290;28;102689;-79
2022/02/04 09:37:53;;;;;;;;;13.25;10.00;;;;;14.30;40.13;98104.13;5004137;28;101780;-79
2022/02/04 09:40:20;;;;;;;;;7.50;6.00;;;;;14.30;40.61;98098.69;5005303;28;102022;-79
2022/02/04 09:42:47;;;;;;;;;8.75;8.00;;;;;14.32;40.29;98111.22;4994865;27;103408;-79
2022/02/04 09:45:16;;;;;;;;;10.00;8.00;;;;;14.32;40.48;98107.41;4992864;27;101796;-79
2022/02/04 09:47:47;;;;;;;;;8.75;6.50;;;;;14.32;40.60;98107.41;4995111;27;103876;-79
2022/02/04 09:50:18;;;;;;;;;8.25;6.00;;;;;14.32;40.50;98099.25;4999346;28;101729;-80
2022/02/04 10:15:39;;;;;;;;;11.75;8.25;;;;;14.45;40.24;98094.69;4989587;28;108239;-79
2022/02/04 10:18:32;;;;;;;;;8.50;7.75;;;;;14.46;39.59;98091.72;4995439;27;101480;-79
2022/02/04 10:21:09;;;;;;;;;6.50;6.25;;;;;14.45;39.95;98076.47;4995884;27;101778;-80
2022/02/04 10:23:52;;;;;;;;;9.25;8.75;;;;;14.46;39.82;98074.56;5001401;27;101676;-79
2022/02/04 10:26:19;;;;;;;;;8.75;7.00;;;;;14.47;39.98;98082.47;4987632;28;103357;-79
2022/02/04 10:28:46;;;;;;;;;8.00;6.50;;;;;14.47;40.19;98076.22;4978682;28;101754;-79
2022/02/04 10:31:27;;;;;;;;;8.00;6.00;;;;;14.46;40.39;98069.94;4987635;28;101857;-79
2022/02/04 10:33:55;;;;;;;;;8.50;6.50;;;;;14.47;40.26;98070.78;4982250;28;101983;-79
2022/02/04 10:36:35;;;;;;;;;6.75;5.50;;;;;14.47;40.17;98070.78;4998375;27;103351;-79
2022/02/04 10:42:17;;;;;;;;;7.50;6.00;;;;;14.47;39.98;98063.44;4990885;28;102067;-79
2022/02/04 10:47:33;;;;;;;;;4.25;4.00;;;;;14.47;40.39;98065.34;4991333;28;103350;-79
2022/02/04 10:50:16;;;;;;;;;8.75;6.00;;;;;14.47;39.80;98070.78;4999530;27;101889;-79
2022/02/04 10:56:04;;;;;;;;;8.75;6.75;;;;;14.46;39.67;98066.38;5005444;28;105330;-79
2022/02/04 11:01:31;;;;;;;;;5.75;5.75;;;;;14.46;39.88;98069.94;4986004;28;101625;-79
2022/02/04 11:04:04;;;;;;;;;8.50;5.25;;;;;14.45;39.95;98059.31;5005714;27;101785;-80
2022/02/04 11:21:47;;;;;;;;;7.75;5.75;;;;;14.43;39.43;98062.28;4966549;27;101630;-79
2022/02/04 11:33:45;;;;;;;;;7.00;6.00;;;;;14.39;40.35;98054.81;4975324;28;108351;-79
2022/02/04 11:35:39;;;;;;;;;6.50;5.00;;;;;14.38;39.83;98050.44;4927476;28;101736;-79
2022/02/04 11:50:03;;;;;;;;;7.50;5.00;;;;;14.34;40.40;98050.06;4994141;27;101599;-80
2022/02/04 11:54:55;;;;;;;;;5.75;5.00;;;;;14.32;40.29;98044.84;5006235;28;103394;-79
2022/02/04 11:57:25;;;;;;;;;6.75;6.50;;;;;14.30;40.05;98044.28;4997261;28;101986;-79
2022/02/04 11:59:54;;;;;;;;;1.00;0.00;;;;;14.31;39.99;98039.69;5000881;27;102337;-79
2022/02/04 12:02:28;;;;;;;;;9.00;6.50;;;;;14.30;40.23;98030.69;4992728;28;103937;-80
2022/02/04 12:05:05;;;;;;;;;9.50;8.00;;;;;14.31;39.89;98034.25;5003819;27;103238;-79
2022/02/04 12:07:33;;;;;;;;;5.50;4.25;;;;;14.29;40.06;98029.03;5000079;27;101819;-79
2022/02/04 12:10:01;;;;;;;;;5.50;5.25;;;;;14.28;40.16;98030.09;5006814;27;101751;-79
2022/02/04 12:12:58;;;;;;;;;5.25;5.25;;;;;14.29;39.61;98026.31;5001341;27;101720;-79
2022/02/04 12:16:02;;;;;;;;;9.50;5.75;;;;;14.29;40.37;98037.19;4988553;28;109401;-79
2022/02/04 12:18:43;;;;;;;;;5.75;5.75;;;;;14.29;40.24;98031.75;4992566;27;101613;-79
2022/02/04 12:21:20;;;;;;;;;9.00;6.50;;;;;14.29;40.15;98030.91;4992018;28;101825;-80
2022/02/04 12:23:53;;;;;;;;;7.75;7.00;;;;;14.28;40.00;98023.81;4997293;27;102742;-79
2022/02/04 12:26:33;;;;;;;;;9.75;6.00;;;;;14.28;39.99;98021.94;4987342;27;103614;-79
2022/02/04 12:29:04;;;;;;;;;9.25;6.00;;;;;14.29;40.39;98028.19;4988357;27;101928;-79
2022/02/04 12:31:42;;;;;;;;;6.00;5.00;;;;;14.28;39.73;98021.94;4993959;28;101740;-79
2022/02/04 12:34:14;;;;;;;;;6.75;4.00;;;;;14.30;40.22;98022.53;5003320;27;102021;-79
2022/02/04 12:36:45;;;;;;;;;7.50;5.75;;;;;14.32;40.09;98026.91;4991570;27;103409;-79
2022/02/04 12:39:15;;;;;;;;;5.25;5.00;;;;;14.31;40.20;98017.91;4991174;27;104229;-79
2022/02/04 12:41:42;;;;;;;;;3.50;3.50;;;;;14.32;39.74;98018.75;4996715;27;102104;-79
2022/02/04 12:44:11;;;;;;;;;6.00;5.75;;;;;14.32;39.71;98025.81;4995994;27;102126;-79
2022/02/04 12:46:42;;;;;;;;;5.00;4.75;;;;;14.35;39.83;98016.38;4995150;28;103620;-80
2022/02/04 12:49:11;;;;;;;;;5.75;5.00;;;;;14.36;39.76;98009.91;5001459;28;101801;-79
2022/02/04 12:54:38;;;;;;;;;4.50;4.50;;;;;14.38;39.78;98010.47;4992289;27;101744;-79
2022/02/04 13:03:19;;;;;;;;;6.50;4.25;;;;;14.41;40.35;98001.03;4998121;27;101785;-79
2022/02/04 13:10:58;;;;;;;;;9.00;6.25;;;;;14.43;39.99;98004.31;4990496;28;101718;-79
2022/02/04 13:13:25;;;;;;;;;6.00;5.00;;;;;14.42;39.72;97998.03;5003155;27;101810;-80
2022/02/04 13:15:55;;;;;;;;;5.50;5.50;;;;;14.42;40.19;98002.66;5008695;27;101774;-79
2022/02/04 13:18:23;;;;;;;;;5.00;5.00;;;;;14.42;40.20;97997.22;4997947;27;103425;-80
2022/02/04 13:20:50;;;;;;;;;5.25;5.00;;;;;14.42;39.57;97994.50;4995518;27;102859;-80
2022/02/04 13:23:21;;;;;;;;;5.50;4.50;;;;;14.42;39.94;97991.78;4983689;28;104798;-79
2022/02/04 13:25:52;;;;;;;;;5.00;3.75;;;;;14.42;40.24;97986.34;4988313;28;101805;-79
2022/02/04 13:28:21;;;;;;;;;5.00;4.00;;;;;14.42;39.88;97989.06;4994110;27;103332;-79
2022/02/04 13:31:04;;;;;;;;;8.25;4.25;;;;;14.42;40.10;97991.78;4994750;27;101947;-79
2022/02/04 13:33:41;;;;;;;;;6.00;4.25;;;;;14.42;40.21;97983.63;4998200;27;101800;-79
2022/02/04 13:36:28;;;;;;;;;5.00;5.00;;;;;14.42;39.81;97983.63;4989625;27;102052;-79
2022/02/04 13:42:01;;;;;;;;;5.50;4.00;;;;;14.42;40.22;97980.91;4997002;27;101757;-79
2022/02/04 13:44:58;;;;;;;;;8.00;6.00;;;;;14.41;39.85;97979.28;4990639;28;101628;-80
2022/02/04 13:47:45;;;;;;;;;5.00;5.00;;;;;14.40;39.63;97978.44;4981797;28;103681;-80
2022/02/04 14:01:01;;;;;;;;;4.50;4.50;;;;;14.37;40.36;97978.06;4998767;27;108036;-79
2022/02/04 14:03:31;;;;;;;;;3.00;3.00;;;;;14.36;40.06;97974.56;4988570;27;101717;-80
2022/02/04 14:06:09;;;;;;;;;8.50;4.75;;;;;14.34;40.61;97973.91;4986762;28;102017;-80
2022/02/04 14:08:50;;;;;;;;;3.00;3.00;;;;;14.36;39.95;97974.56;4993734;27;102046;-79
2022/02/04 14:11:30;;;;;;;;;5.75;4.25;;;;;14.36;39.97;97968.28;4989994;27;103538;-79
2022/02/04 14:14:07;;;;;;;;;4.00;3.00;;;;;14.35;40.27;97969.31;4999461;27;101906;-79
2022/02/04 14:16:34;;;;;;;;;4.75;4.00;;;;;14.35;39.38;97966.59;4996869;28;101848;-79
2022/02/04 14:19:02;;;;;;;;;6.25;4.50;;;;;14.34;40.39;97973.09;4992699;28;101963;-79
2022/02/04 14:21:34;;;;;;;;;7.50;5.00;;;;;14.32;39.69;97966.00;4995820;27;108106;-79
2022/02/04 14:24:07;;;;;;;;;8.00;5.00;;;;;14.32;39.90;97961.63;5001383;27;101895;-79
2022/02/04 14:26:38;;;;;;;;;3.00;3.00;;;;;14.31;40.30;97966.25;4985595;27;101880;-79
2022/02/04 14:29:14;;;;;;;;;5.75;4.00;;;;;14.29;40.36;97961.03;5006740;27;102220;-79
2022/02/04 14:32:22;;;;;;;;;5.75;3.25;;;;;14.30;39.96;97972.75;4986158;28;108113;-79
2022/02/04 14:34:53;;;;;;;;;5.75;5.25;;;;;14.29;40.44;97971.09;4986714;28;103821;-79
2022/02/04 14:53:43;;;;;;;;;9.00;5.50;;;;;14.24;39.83;97979.97;5000400;28;108079;-79
2022/02/04 15:02:04;;;;;;;;;4.50;4.50;;;;;14.24;40.56;97977.25;4989896;27;101962;-79
2022/02/04 15:04:46;;;;;;;;;4.75;4.25;;;;;14.24;40.51;97985.41;4994417;27;108071;-80
2022/02/04 15:07:14;;;;;;;;;6.75;5.50;;;;;14.24;40.46;97976.41;4987088;28;102089;-79
2022/02/04 15:09:50;;;;;;;;;7.00;4.00;;;;;14.23;40.42;97972.88;4991138;28;111973;-79
2022/02/04 15:12:18;;;;;;;;;1.00;0.00;;;;;14.26;40.42;97974.28;5004560;27;102076;-79
2022/02/04 15:14:45;;;;;;;;;8.25;5.00;;;;;14.26;40.13;97971.56;5014302;27;103507;-79
2022/02/04 15:17:12;;;;;;;;;4.00;3.25;;;;;14.27;40.31;97976.75;4999654;27;102129;-79
2022/02/04 15:19:42;;;;;;;;;5.50;4.50;;;;;14.27;40.59;97976.75;4993323;27;102194;-79
2022/02/04 15:22:09;;;;;;;;;4.50;4.50;;;;;14.27;39.86;97982.19;4989610;27;102243;-79
2022/02/04 15:24:37;;;;;;;;;5.00;4.00;;;;;14.29;40.03;97980.06;4992205;27;103370;-79
2022/02/04 15:27:05;;;;;;;;;6.25;4.50;;;;;14.31;40.51;97971.69;4992526;27;101556;-79
2022/02/04 15:29:36;;;;;;;;;4.00;3.25;;;;;14.30;40.56;97979.03;5008185;27;102246;-79
2022/02/04 15:32:03;;;;;;;;;6.50;5.50;;;;;14.32;40.12;97976.88;4998554;27;101755;-79
2022/02/04 15:34:31;;;;;;;;;5.50;5.00;;;;;14.36;40.45;97976.44;4994861;27;103635;-80
2022/02/04 15:36:58;;;;;;;;;5.25;5.00;;;;;14.36;40.08;97976.44;4995555;28;102309;-80
2022/02/04 15:39:27;;;;;;;;;4.00;3.25;;;;;14.36;40.46;97977.28;4991674;27;102122;-79
2022/02/04 15:41:55;;;;;;;;;3.75;3.00;;;;;14.38;40.51;97975.13;4995030;28;102150;-79
2022/02/04 15:44:37;;;;;;;;;4.00;3.00;;;;;14.37;40.13;97965.28;4988113;27;103656;-79
2022/02/04 15:55:30;;;;;;;;;5.00;4.00;;;;;14.38;39.77;97963.41;5002346;28;108023;-79
2022/02/04 15:58:14;;;;;;;;;5.50;4.50;;;;;14.38;39.86;97966.13;4984095;27;104226;-79
2022/02/04 16:03:32;;;;;;;;;8.50;5.00;;;;;14.36;39.65;97960.94;5001449;27;101810;-79
2022/02/04 16:06:02;;;;;;;;;5.00;4.00;;;;;14.35;40.54;97970.13;4989879;27;108022;-80
2022/02/04 16:08:30;;;;;;;;;4.00;4.00;;;;;14.37;39.91;97964.47;4997469;27;102007;-79
2022/02/04 16:11:13;;;;;;;;;5.00;4.00;;;;;14.35;40.21;97956.53;4996287;27;102428;-80
2022/02/04 16:13:56;;;;;;;;;5.00;5.00;;;;;14.37;39.62;97957.13;4996566;28;102214;-79
2022/02/04 16:16:28;;;;;;;;;4.00;4.00;;;;;14.37;39.94;97956.31;5000966;27;103481;-79
2022/02/04 16:22:01;;;;;;;;;5.00;5.00;;;;;14.35;39.82;97942.13;4997048;27;102017;-79
2022/02/04 16:26:50;;;;;;;;;5.00;5.00;;;;;14.34;40.50;97935.84;4989949;28;103350;-79
2022/02/04 16:29:17;;;;;;;;;8.25;5.00;;;;;14.33;40.63;97934.19;5005577;27;109941;-79
2022/02/04 16:31:44;;;;;;;;;6.00;4.00;;;;;14.33;40.54;97945.06;5001344;27;101919;-79
2022/02/04 16:34:12;;;;;;;;;5.00;4.00;;;;;14.33;39.73;97934.19;4994744;28;102097;-79
2022/02/04 16:37:01;;;;;;;;;4.00;4.00;;;;;14.32;40.38;97937.16;4987490;27;103454;-80
2022/02/04 16:39:29;;;;;;;;;5.75;4.75;;;;;14.32;40.56;97934.44;5000397;28;102138;-79
2022/02/04 16:42:11;;;;;;;;;4.75;3.25;;;;;14.30;39.85;97930.06;5002522;27;102472;-79
2022/02/04 16:44:38;;;;;;;;;4.25;4.25;;;;;14.29;40.03;97933.84;4990105;28;105062;-79
2022/02/04 16:47:06;;;;;;;;;5.25;4.00;;;;;14.29;40.39;97933.84;5000699;28;103338;-79
2022/02/04 16:49:33;;;;;;;;;3.75;3.00;;;;;14.28;40.26;97937.63;5010825;27;102480;-80
2022/02/04 16:52:00;;;;;;;;;3.00;3.00;;;;;14.30;39.71;97946.38;4987725;27;101982;-79
2022/02/04 16:54:28;;;;;;;;;5.50;4.75;;;;;14.29;40.51;97943.91;5000565;27;105171;-79
2022/02/04 16:56:55;;;;;;;;;6.00;3.75;;;;;14.27;40.19;97940.59;4992006;27;103331;-79
2022/02/04 16:59:24;;;;;;;;;4.25;3.00;;;;;14.27;40.05;97935.97;4994111;27;102046;-79
2022/02/04 17:01:52;;;;;;;;;4.75;4.75;;;;;14.26;40.01;97939.78;4998998;28;102123;-79
2022/02/04 17:04:19;;;;;;;;;4.00;4.00;;;;;14.26;40.54;97934.34;4999462;28;101749;-79
2022/02/04 17:06:54;;;;;;;;;9.25;4.75;;;;;14.26;40.07;97928.91;4997574;27;103329;-79
2022/02/04 17:09:23;;;;;;;;;8.00;5.25;;;;;14.25;39.96;97940.84;4988971;27;101917;-79
2022/02/04 17:11:59;;;;;;;;;5.00;4.50;;;;;14.25;40.51;97943.56;4993086;27;101709;-79
2022/02/04 17:14:27;;;;;;;;;4.00;3.50;;;;;14.24;40.51;97947.34;4987968;28;101921;-79
2022/02/04 17:16:55;;;;;;;;;4.00;3.75;;;;;14.24;40.58;97941.06;4992971;28;103458;-80
2022/02/04 17:19:26;;;;;;;;;2.25;1.00;;;;;14.23;40.12;97942.13;4998321;27;102415;-79
2022/02/04 17:21:55;;;;;;;;;5.25;5.00;;;;;14.24;40.17;97950.06;4987279;27;104053;-79
2022/02/04 17:24:23;;;;;;;;;8.75;4.75;;;;;14.24;40.48;97946.50;4989322;28;102586;-79
2022/02/04 17:26:50;;;;;;;;;4.50;4.00;;;;;14.23;40.35;97942.13;5002420;27;103065;-79
2022/02/04 17:29:17;;;;;;;;;4.50;4.50;;;;;14.23;40.34;97948.41;5008701;27;102066;-79
2022/02/04 17:31:44;;;;;;;;;4.00;3.75;;;;;14.26;39.75;97944.38;5005311;27;102011;-79
2022/02/04 17:34:12;;;;;;;;;4.00;3.50;;;;;14.27;40.59;97946.84;4991147;27;102184;-79
2022/02/04 17:36:39;;;;;;;;;4.50;4.50;;;;;14.28;40.41;97947.66;4996336;27;103374;-79
2022/02/04 17:39:17;;;;;;;;;6.50;4.50;;;;;14.29;40.44;97933.00;5002162;27;102392;-80
2022/02/04 17:41:45;;;;;;;;;3.00;3.00;;;;;14.29;39.92;97939.28;5008744;28;102111;-79
2022/02/04 17:44:16;;;;;;;;;5.50;5.50;;;;;14.32;40.58;97939.88;4988894;27;101853;-79
2022/02/04 17:46:44;;;;;;;;;5.25;4.00;;;;;14.32;40.22;97944.22;4999331;27;103524;-79
2022/02/04 17:49:26;;;;;;;;;5.00;4.50;;;;;14.32;39.67;97933.34;4983816;28;103103;-79